sensor_id;sensor_type;location;lat;lon;timestamp;P1;durP1;ratioP1;P2;durP2;ratioP2
18316;SDS011;9284;52.298;21.164;2022-09-12T03:17:58;7.93;;;3.10;;
18316;SDS011;9284;52.298;21.164;2022-09-12T03:20:36;4.57;;;3.10;;
18316;SDS011;9284;52.298;21.164;2022-09-12T03:23:15;6.85;;;3.08;;
18316;SDS011;9284;52.298;21.164;2022-09-12T03:25:50;8.93;;;2.78;;
18316;SDS011;9284;52.298;21.164;2022-09-12T03:28:22;7.30;;;3.38;;
18316;SDS011;9284;52.298;21.164;2022-09-12T03:30:50;7.30;;;4.80;;
18316;SDS011;9284;52.298;21.164;2022-09-12T03:33:23;16.35;;;12.00;;
18316;SDS011;9284;52.298;21.164;2022-09-12T03:35:52;13.30;;;10.40;;
18316;SDS011;9284;52.298;21.164;2022-09-12T03:38:21;14.23;;;10.15;;
18316;SDS011;9284;52.298;21.164;2022-09-12T03:40:50;13.48;;;7.93;;
18316;SDS011;9284;52.298;21.164;2022-09-12T03:43:20;7.75;;;5.00;;
18316;SDS011;9284;52.298;21.164;2022-09-12T03:45:49;6.35;;;4.00;;
18316;SDS011;9284;52.298;21.164;2022-09-12T03:48:19;6.43;;;4.47;;
18316;SDS011;9284;52.298;21.164;2022-09-12T03:50:49;8.25;;;3.60;;
18316;SDS011;9284;52.298;21.164;2022-09-12T03:53:17;7.72;;;3.97;;
18316;SDS011;9284;52.298;21.164;2022-09-12T03:55:45;7.72;;;3.65;;
18316;SDS011;9284;52.298;21.164;2022-09-12T03:58:13;6.15;;;3.67;;
18316;SDS011;9284;52.298;21.164;2022-09-12T04:00:41;8.15;;;3.88;;
18316;SDS011;9284;52.298;21.164;2022-09-12T04:03:09;9.05;;;3.90;;
18316;SDS011;9284;52.298;21.164;2022-09-12T04:05:37;5.93;;;3.83;;
18316;SDS011;9284;52.298;21.164;2022-09-12T04:08:07;6.55;;;3.95;;
18316;SDS011;9284;52.298;21.164;2022-09-12T04:10:35;6.10;;;4.05;;
18316;SDS011;9284;52.298;21.164;2022-09-12T04:13:03;7.90;;;3.97;;
18316;SDS011;9284;52.298;21.164;2022-09-12T04:15:31;9.00;;;4.30;;
18316;SDS011;9284;52.298;21.164;2022-09-12T04:17:59;8.40;;;4.65;;
18316;SDS011;9284;52.298;21.164;2022-09-12T04:20:31;8.77;;;4.55;;
18316;SDS011;9284;52.298;21.164;2022-09-12T04:22:59;8.50;;;4.43;;
18316;SDS011;9284;52.298;21.164;2022-09-12T04:25:29;7.57;;;4.75;;
18316;SDS011;9284;52.298;21.164;2022-09-12T04:27:57;8.18;;;4.97;;
18316;SDS011;9284;52.298;21.164;2022-09-12T04:30:26;6.05;;;4.45;;
18316;SDS011;9284;52.298;21.164;2022-09-12T04:32:54;7.25;;;4.75;;
18316;SDS011;9284;52.298;21.164;2022-09-12T04:35:22;10.63;;;5.85;;
18316;SDS011;9284;52.298;21.164;2022-09-12T04:37:50;9.70;;;5.20;;
18316;SDS011;9284;52.298;21.164;2022-09-12T04:40:19;8.57;;;5.45;;
18316;SDS011;9284;52.298;21.164;2022-09-12T04:42:48;11.20;;;5.43;;
18316;SDS011;9284;52.298;21.164;2022-09-12T04:45:17;8.77;;;5.75;;
18316;SDS011;9284;52.298;21.164;2022-09-12T04:47:45;9.15;;;5.72;;
18316;SDS011;9284;52.298;21.164;2022-09-12T04:50:13;8.65;;;5.88;;
18316;SDS011;9284;52.298;21.164;2022-09-12T04:52:42;9.23;;;5.78;;
18316;SDS011;9284;52.298;21.164;2022-09-12T04:55:10;10.10;;;6.03;;
18316;SDS011;9284;52.298;21.164;2022-09-12T04:57:38;9.23;;;5.95;;
18316;SDS011;9284;52.298;21.164;2022-09-12T05:00:09;9.88;;;5.95;;
18316;SDS011;9284;52.298;21.164;2022-09-12T05:02:40;11.10;;;6.72;;
18316;SDS011;9284;52.298;21.164;2022-09-12T05:05:08;12.68;;;6.57;;
18316;SDS011;9284;52.298;21.164;2022-09-12T05:07:37;12.52;;;7.45;;
18316;SDS011;9284;52.298;21.164;2022-09-12T05:10:06;13.52;;;6.53;;
18316;SDS011;9284;52.298;21.164;2022-09-12T05:12:34;11.40;;;6.80;;
18316;SDS011;9284;52.298;21.164;2022-09-12T05:15:03;12.68;;;6.97;;
18316;SDS011;9284;52.298;21.164;2022-09-12T05:17:33;11.30;;;7.03;;
18316;SDS011;9284;52.298;21.164;2022-09-12T05:20:02;15.32;;;7.78;;
18316;SDS011;9284;52.298;21.164;2022-09-12T05:22:30;10.73;;;6.75;;
18316;SDS011;9284;52.298;21.164;2022-09-12T05:24:59;12.00;;;6.93;;
18316;SDS011;9284;52.298;21.164;2022-09-12T05:27:27;11.50;;;7.47;;
18316;SDS011;9284;52.298;21.164;2022-09-12T05:29:55;10.98;;;7.03;;
18316;SDS011;9284;52.298;21.164;2022-09-12T05:32:23;15.73;;;8.30;;
18316;SDS011;9284;52.298;21.164;2022-09-12T05:34:53;9.93;;;7.15;;
18316;SDS011;9284;52.298;21.164;2022-09-12T05:37:21;11.32;;;7.38;;
18316;SDS011;9284;52.298;21.164;2022-09-12T05:39:49;16.02;;;7.95;;
18316;SDS011;9284;52.298;21.164;2022-09-12T05:42:18;13.13;;;8.02;;
18316;SDS011;9284;52.298;21.164;2022-09-12T05:44:46;13.55;;;8.30;;
18316;SDS011;9284;52.298;21.164;2022-09-12T05:47:14;13.45;;;8.20;;
18316;SDS011;9284;52.298;21.164;2022-09-12T05:49:46;14.25;;;8.02;;
18316;SDS011;9284;52.298;21.164;2022-09-12T05:52:16;16.75;;;8.85;;
18316;SDS011;9284;52.298;21.164;2022-09-12T05:54:46;12.88;;;8.23;;
18316;SDS011;9284;52.298;21.164;2022-09-12T05:57:18;12.85;;;8.50;;
18316;SDS011;9284;52.298;21.164;2022-09-12T05:59:47;12.45;;;8.00;;
18316;SDS011;9284;52.298;21.164;2022-09-12T06:02:16;13.93;;;8.65;;
18316;SDS011;9284;52.298;21.164;2022-09-12T06:04:44;13.40;;;7.95;;
18316;SDS011;9284;52.298;21.164;2022-09-12T06:07:12;12.82;;;8.48;;
18316;SDS011;9284;52.298;21.164;2022-09-12T06:09:42;13.60;;;8.50;;
18316;SDS011;9284;52.298;21.164;2022-09-12T06:12:10;16.67;;;9.32;;
18316;SDS011;9284;52.298;21.164;2022-09-12T06:14:39;14.05;;;8.60;;
18316;SDS011;9284;52.298;21.164;2022-09-12T06:17:07;18.50;;;9.45;;
18316;SDS011;9284;52.298;21.164;2022-09-12T06:19:36;14.73;;;8.73;;
18316;SDS011;9284;52.298;21.164;2022-09-12T06:22:04;13.50;;;8.45;;
18316;SDS011;9284;52.298;21.164;2022-09-12T06:24:32;12.85;;;8.68;;
18316;SDS011;9284;52.298;21.164;2022-09-12T06:27:02;12.50;;;8.07;;
18316;SDS011;9284;52.298;21.164;2022-09-12T06:29:31;12.18;;;8.07;;
18316;SDS011;9284;52.298;21.164;2022-09-12T06:31:59;14.43;;;7.72;;
18316;SDS011;9284;52.298;21.164;2022-09-12T06:34:27;11.93;;;7.47;;
18316;SDS011;9284;52.298;21.164;2022-09-12T06:36:59;13.45;;;8.15;;
18316;SDS011;9284;52.298;21.164;2022-09-12T06:39:29;9.73;;;7.18;;
18316;SDS011;9284;52.298;21.164;2022-09-12T06:41:57;12.60;;;7.53;;
18316;SDS011;9284;52.298;21.164;2022-09-12T06:44:34;14.10;;;7.82;;
18316;SDS011;9284;52.298;21.164;2022-09-12T06:47:02;12.40;;;7.80;;
18316;SDS011;9284;52.298;21.164;2022-09-12T06:49:32;11.63;;;7.55;;
18316;SDS011;9284;52.298;21.164;2022-09-12T06:52:01;11.38;;;7.60;;
18316;SDS011;9284;52.298;21.164;2022-09-12T06:54:29;11.18;;;7.22;;
18316;SDS011;9284;52.298;21.164;2022-09-12T06:56:57;10.32;;;7.13;;
18316;SDS011;9284;52.298;21.164;2022-09-12T06:59:25;14.63;;;7.85;;
18316;SDS011;9284;52.298;21.164;2022-09-12T07:01:55;11.80;;;7.57;;
18316;SDS011;9284;52.298;21.164;2022-09-12T07:04:24;11.25;;;7.10;;
18316;SDS011;9284;52.298;21.164;2022-09-12T07:06:53;11.93;;;7.68;;
18316;SDS011;9284;52.298;21.164;2022-09-12T07:09:21;13.55;;;6.95;;
18316;SDS011;9284;52.298;21.164;2022-09-12T07:11:49;9.55;;;6.80;;
18316;SDS011;9284;52.298;21.164;2022-09-12T07:14:18;9.68;;;7.10;;
18316;SDS011;9284;52.298;21.164;2022-09-12T07:16:46;11.07;;;6.88;;
18316;SDS011;9284;52.298;21.164;2022-09-12T07:19:16;12.70;;;7.13;;
18316;SDS011;9284;52.298;21.164;2022-09-12T07:21:45;9.73;;;6.15;;
18316;SDS011;9284;52.298;21.164;2022-09-12T07:24:13;12.63;;;6.32;;
18316;SDS011;9284;52.298;21.164;2022-09-12T07:26:42;10.75;;;6.55;;
18316;SDS011;9284;52.298;21.164;2022-09-12T07:29:12;10.18;;;6.13;;
18316;SDS011;9284;52.298;21.164;2022-09-12T07:32:02;8.88;;;6.03;;
18316;SDS011;9284;52.298;21.164;2022-09-12T07:34:33;9.13;;;5.82;;
18316;SDS011;9284;52.298;21.164;2022-09-12T07:37:01;9.95;;;6.55;;
18316;SDS011;9284;52.298;21.164;2022-09-12T07:39:30;10.27;;;6.55;;
18316;SDS011;9284;52.298;21.164;2022-09-12T07:41:59;11.73;;;7.05;;
18316;SDS011;9284;52.298;21.164;2022-09-12T07:44:27;12.10;;;6.95;;
18316;SDS011;9284;52.298;21.164;2022-09-12T07:46:55;9.82;;;5.97;;
18316;SDS011;9284;52.298;21.164;2022-09-12T07:49:23;12.77;;;6.95;;
18316;SDS011;9284;52.298;21.164;2022-09-12T07:51:53;10.73;;;6.30;;
18316;SDS011;9284;52.298;21.164;2022-09-12T07:54:21;11.50;;;6.47;;
18316;SDS011;9284;52.298;21.164;2022-09-12T07:56:50;11.43;;;6.40;;
18316;SDS011;9284;52.298;21.164;2022-09-12T07:59:18;12.10;;;6.75;;
18316;SDS011;9284;52.298;21.164;2022-09-12T08:02:09;9.02;;;6.15;;
18316;SDS011;9284;52.298;21.164;2022-09-12T08:04:43;8.90;;;6.70;;
18316;SDS011;9284;52.298;21.164;2022-09-12T08:07:13;15.95;;;6.63;;
18316;SDS011;9284;52.298;21.164;2022-09-12T08:09:43;12.73;;;6.38;;
18316;SDS011;9284;52.298;21.164;2022-09-12T08:12:13;11.95;;;6.70;;
18316;SDS011;9284;52.298;21.164;2022-09-12T08:14:42;12.13;;;6.35;;
18316;SDS011;9284;52.298;21.164;2022-09-12T08:17:10;7.80;;;5.63;;
18316;SDS011;9284;52.298;21.164;2022-09-12T08:19:39;7.60;;;6.00;;
18316;SDS011;9284;52.298;21.164;2022-09-12T08:22:07;12.48;;;6.45;;
18316;SDS011;9284;52.298;21.164;2022-09-12T08:24:38;10.80;;;5.53;;
18316;SDS011;9284;52.298;21.164;2022-09-12T08:27:06;9.57;;;5.50;;
18316;SDS011;9284;52.298;21.164;2022-09-12T08:29:34;10.07;;;5.90;;
18316;SDS011;9284;52.298;21.164;2022-09-12T08:32:03;12.48;;;6.00;;
18316;SDS011;9284;52.298;21.164;2022-09-12T08:34:31;13.35;;;6.03;;
18316;SDS011;9284;52.298;21.164;2022-09-12T08:36:59;8.75;;;5.95;;
18316;SDS011;9284;52.298;21.164;2022-09-12T08:39:27;7.85;;;5.40;;
18316;SDS011;9284;52.298;21.164;2022-09-12T08:41:58;10.13;;;5.63;;
18316;SDS011;9284;52.298;21.164;2022-09-12T08:47:24;7.30;;;4.25;;
18316;SDS011;9284;52.298;21.164;2022-09-12T08:49:58;9.25;;;4.68;;
18316;SDS011;9284;52.298;21.164;2022-09-12T08:52:32;9.07;;;5.30;;
18316;SDS011;9284;52.298;21.164;2022-09-12T08:55:06;7.80;;;4.93;;
18316;SDS011;9284;52.298;21.164;2022-09-12T08:57:51;7.82;;;5.13;;
18316;SDS011;9284;52.298;21.164;2022-09-12T09:00:20;6.38;;;5.13;;
18316;SDS011;9284;52.298;21.164;2022-09-12T09:02:53;9.45;;;4.80;;
18316;SDS011;9284;52.298;21.164;2022-09-12T09:05:42;6.63;;;4.28;;
18316;SDS011;9284;52.298;21.164;2022-09-12T09:11:14;9.88;;;5.15;;
18316;SDS011;9284;52.298;21.164;2022-09-12T09:14:05;8.35;;;4.55;;
18316;SDS011;9284;52.298;21.164;2022-09-12T09:17:06;5.40;;;4.45;;
18316;SDS011;9284;52.298;21.164;2022-09-12T09:19:38;6.85;;;4.50;;
18316;SDS011;9284;52.298;21.164;2022-09-12T09:22:16;8.50;;;3.92;;
18316;SDS011;9284;52.298;21.164;2022-09-12T09:24:56;8.15;;;4.32;;
18316;SDS011;9284;52.298;21.164;2022-09-12T09:27:30;6.45;;;4.28;;
18316;SDS011;9284;52.298;21.164;2022-09-12T09:30:11;7.78;;;4.45;;
18316;SDS011;9284;52.298;21.164;2022-09-12T09:32:41;6.35;;;4.32;;
18316;SDS011;9284;52.298;21.164;2022-09-12T09:35:15;7.68;;;4.55;;
18316;SDS011;9284;52.298;21.164;2022-09-12T09:37:52;6.90;;;5.15;;
18316;SDS011;9284;52.298;21.164;2022-09-12T09:40:38;5.95;;;4.45;;
18316;SDS011;9284;52.298;21.164;2022-09-12T09:43:15;7.25;;;4.32;;
18316;SDS011;9284;52.298;21.164;2022-09-12T09:45:49;8.45;;;4.25;;
18316;SDS011;9284;52.298;21.164;2022-09-12T09:48:20;11.10;;;4.25;;
18316;SDS011;9284;52.298;21.164;2022-09-12T09:50:51;8.13;;;3.65;;
18316;SDS011;9284;52.298;21.164;2022-09-12T09:53:23;7.70;;;3.70;;
18316;SDS011;9284;52.298;21.164;2022-09-12T09:55:58;6.03;;;3.67;;
18316;SDS011;9284;52.298;21.164;2022-09-12T09:58:30;7.88;;;3.85;;
18316;SDS011;9284;52.298;21.164;2022-09-12T10:01:01;8.25;;;3.78;;
18316;SDS011;9284;52.298;21.164;2022-09-12T10:03:33;9.32;;;3.70;;
18316;SDS011;9284;52.298;21.164;2022-09-12T10:06:20;6.18;;;3.60;;
18316;SDS011;9284;52.298;21.164;2022-09-12T10:08:51;7.50;;;3.80;;
18316;SDS011;9284;52.298;21.164;2022-09-12T10:11:34;6.38;;;3.92;;
18316;SDS011;9284;52.298;21.164;2022-09-12T10:17:02;8.07;;;3.70;;
18316;SDS011;9284;52.298;21.164;2022-09-12T10:19:49;8.02;;;4.15;;
18316;SDS011;9284;52.298;21.164;2022-09-12T10:22:38;6.80;;;4.00;;
18316;SDS011;9284;52.298;21.164;2022-09-12T10:25:09;6.90;;;3.70;;
18316;SDS011;9284;52.298;21.164;2022-09-12T10:27:39;9.07;;;3.95;;
18316;SDS011;9284;52.298;21.164;2022-09-12T10:30:15;12.27;;;3.88;;
18316;SDS011;9284;52.298;21.164;2022-09-12T10:32:47;7.13;;;3.75;;
18316;SDS011;9284;52.298;21.164;2022-09-12T10:35:17;8.25;;;3.47;;
18316;SDS011;9284;52.298;21.164;2022-09-12T10:37:51;5.45;;;3.35;;
18316;SDS011;9284;52.298;21.164;2022-09-12T10:40:22;7.45;;;3.80;;
18316;SDS011;9284;52.298;21.164;2022-09-12T10:42:53;6.88;;;3.95;;
18316;SDS011;9284;52.298;21.164;2022-09-12T10:45:24;4.88;;;3.42;;
18316;SDS011;9284;52.298;21.164;2022-09-12T10:47:57;10.73;;;3.72;;
18316;SDS011;9284;52.298;21.164;2022-09-12T10:50:34;8.20;;;3.72;;
18316;SDS011;9284;52.298;21.164;2022-09-12T10:53:13;7.13;;;3.80;;
18316;SDS011;9284;52.298;21.164;2022-09-12T10:55:51;8.93;;;3.70;;
18316;SDS011;9284;52.298;21.164;2022-09-12T10:58:35;7.03;;;3.20;;
18316;SDS011;9284;52.298;21.164;2022-09-12T11:01:14;5.00;;;3.30;;
18316;SDS011;9284;52.298;21.164;2022-09-12T11:03:57;8.25;;;4.18;;
18316;SDS011;9284;52.298;21.164;2022-09-12T11:06:46;9.27;;;3.22;;
18316;SDS011;9284;52.298;21.164;2022-09-12T11:09:34;5.60;;;2.97;;
18316;SDS011;9284;52.298;21.164;2022-09-12T11:12:10;7.82;;;2.92;;
18316;SDS011;9284;52.298;21.164;2022-09-12T11:14:51;7.68;;;2.80;;
18316;SDS011;9284;52.298;21.164;2022-09-12T11:17:32;5.45;;;3.60;;
18316;SDS011;9284;52.298;21.164;2022-09-12T11:20:15;3.85;;;3.00;;
18316;SDS011;9284;52.298;21.164;2022-09-12T11:26:05;7.93;;;3.50;;
18316;SDS011;9284;52.298;21.164;2022-09-12T11:28:42;8.70;;;3.20;;
18316;SDS011;9284;52.298;21.164;2022-09-12T11:31:27;5.25;;;2.70;;
18316;SDS011;9284;52.298;21.164;2022-09-12T11:34:09;8.18;;;3.72;;
18316;SDS011;9284;52.298;21.164;2022-09-12T11:36:47;12.10;;;3.33;;
18316;SDS011;9284;52.298;21.164;2022-09-12T11:39:36;5.47;;;3.00;;
18316;SDS011;9284;52.298;21.164;2022-09-12T11:42:09;5.10;;;2.85;;
18316;SDS011;9284;52.298;21.164;2022-09-12T11:44:45;5.60;;;3.22;;
18316;SDS011;9284;52.298;21.164;2022-09-12T11:47:17;6.32;;;3.20;;
18316;SDS011;9284;52.298;21.164;2022-09-12T11:49:46;3.15;;;2.55;;
18316;SDS011;9284;52.298;21.164;2022-09-12T11:52:19;6.07;;;3.05;;
18316;SDS011;9284;52.298;21.164;2022-09-12T11:54:56;5.28;;;3.28;;
18316;SDS011;9284;52.298;21.164;2022-09-12T11:57:30;4.13;;;2.92;;
18316;SDS011;9284;52.298;21.164;2022-09-12T12:00:04;9.52;;;3.85;;
18316;SDS011;9284;52.298;21.164;2022-09-12T12:02:42;5.53;;;3.35;;
18316;SDS011;9284;52.298;21.164;2022-09-12T12:05:23;5.35;;;3.50;;
18316;SDS011;9284;52.298;21.164;2022-09-12T12:07:57;9.80;;;3.35;;
18316;SDS011;9284;52.298;21.164;2022-09-12T12:10:30;5.20;;;3.58;;
18316;SDS011;9284;52.298;21.164;2022-09-12T12:13:02;4.65;;;3.10;;
18316;SDS011;9284;52.298;21.164;2022-09-12T12:15:39;7.72;;;3.80;;
18316;SDS011;9284;52.298;21.164;2022-09-12T12:18:14;5.80;;;2.95;;
18316;SDS011;9284;52.298;21.164;2022-09-12T12:20:45;5.95;;;3.33;;
18316;SDS011;9284;52.298;21.164;2022-09-12T12:23:22;4.20;;;2.90;;
18316;SDS011;9284;52.298;21.164;2022-09-12T12:25:53;5.15;;;2.85;;
18316;SDS011;9284;52.298;21.164;2022-09-12T12:31:27;4.82;;;3.05;;
18316;SDS011;9284;52.298;21.164;2022-09-12T12:36:49;6.25;;;2.80;;
18316;SDS011;9284;52.298;21.164;2022-09-12T12:45:58;5.38;;;2.67;;
18316;SDS011;9284;52.298;21.164;2022-09-12T12:51:32;5.10;;;3.47;;
18316;SDS011;9284;52.298;21.164;2022-09-12T12:54:05;4.60;;;3.60;;
18316;SDS011;9284;52.298;21.164;2022-09-12T12:59:47;6.15;;;3.10;;
18316;SDS011;9284;52.298;21.164;2022-09-12T13:02:19;8.15;;;2.92;;
18316;SDS011;9284;52.298;21.164;2022-09-12T13:04:51;4.63;;;3.13;;
18316;SDS011;9284;52.298;21.164;2022-09-12T13:07:24;7.38;;;3.20;;
18316;SDS011;9284;52.298;21.164;2022-09-12T13:09:58;4.70;;;3.30;;
18316;SDS011;9284;52.298;21.164;2022-09-12T13:12:28;5.57;;;3.00;;
18316;SDS011;9284;52.298;21.164;2022-09-12T13:15:01;7.50;;;3.10;;
18316;SDS011;9284;52.298;21.164;2022-09-12T13:17:34;6.75;;;3.85;;
18316;SDS011;9284;52.298;21.164;2022-09-12T13:20:16;5.80;;;3.05;;
18316;SDS011;9284;52.298;21.164;2022-09-12T13:22:53;4.90;;;2.90;;
18316;SDS011;9284;52.298;21.164;2022-09-12T13:25:23;5.60;;;3.15;;
18316;SDS011;9284;52.298;21.164;2022-09-12T13:28:00;6.70;;;3.30;;
18316;SDS011;9284;52.298;21.164;2022-09-12T13:30:32;11.98;;;4.18;;
18316;SDS011;9284;52.298;21.164;2022-09-12T13:33:08;18.40;;;3.65;;
18316;SDS011;9284;52.298;21.164;2022-09-12T13:35:50;7.70;;;3.00;;
18316;SDS011;9284;52.298;21.164;2022-09-12T13:38:36;10.45;;;3.25;;
18316;SDS011;9284;52.298;21.164;2022-09-12T13:41:18;4.10;;;2.90;;
18316;SDS011;9284;52.298;21.164;2022-09-12T13:43:56;3.70;;;2.90;;
18316;SDS011;9284;52.298;21.164;2022-09-12T13:46:27;3.67;;;3.00;;
18316;SDS011;9284;52.298;21.164;2022-09-12T13:48:59;4.10;;;3.40;;
18316;SDS011;9284;52.298;21.164;2022-09-12T13:51:32;3.88;;;2.90;;
18316;SDS011;9284;52.298;21.164;2022-09-12T13:54:01;6.10;;;2.90;;
18316;SDS011;9284;52.298;21.164;2022-09-12T13:56:31;5.05;;;3.10;;
18316;SDS011;9284;52.298;21.164;2022-09-12T13:58:59;7.20;;;3.17;;
18316;SDS011;9284;52.298;21.164;2022-09-12T14:01:37;36.42;;;4.30;;
18316;SDS011;9284;52.298;21.164;2022-09-12T14:04:13;6.88;;;3.50;;
18316;SDS011;9284;52.298;21.164;2022-09-12T14:07:01;4.38;;;3.22;;
18316;SDS011;9284;52.298;21.164;2022-09-12T14:09:38;8.13;;;3.10;;
18316;SDS011;9284;52.298;21.164;2022-09-12T14:12:12;8.73;;;3.50;;
18316;SDS011;9284;52.298;21.164;2022-09-12T14:14:51;4.35;;;3.10;;
18316;SDS011;9284;52.298;21.164;2022-09-12T14:17:24;3.95;;;2.80;;
18316;SDS011;9284;52.298;21.164;2022-09-12T14:19:58;5.28;;;3.00;;
18316;SDS011;9284;52.298;21.164;2022-09-12T14:22:29;3.95;;;3.15;;
18316;SDS011;9284;52.298;21.164;2022-09-12T14:24:59;3.92;;;3.15;;
18316;SDS011;9284;52.298;21.164;2022-09-12T14:27:30;4.97;;;3.30;;
18316;SDS011;9284;52.298;21.164;2022-09-12T14:30:04;3.47;;;3.05;;
18316;SDS011;9284;52.298;21.164;2022-09-12T14:32:36;3.55;;;3.10;;
18316;SDS011;9284;52.298;21.164;2022-09-12T14:35:05;4.32;;;3.40;;
18316;SDS011;9284;52.298;21.164;2022-09-12T14:37:43;4.75;;;3.28;;
18316;SDS011;9284;52.298;21.164;2022-09-12T14:40:14;4.97;;;3.53;;
18316;SDS011;9284;52.298;21.164;2022-09-12T14:42:45;4.93;;;3.40;;
18316;SDS011;9284;52.298;21.164;2022-09-12T14:45:16;5.53;;;3.55;;
18316;SDS011;9284;52.298;21.164;2022-09-12T14:47:51;4.03;;;3.20;;
18316;SDS011;9284;52.298;21.164;2022-09-12T14:50:21;4.80;;;3.63;;
18316;SDS011;9284;52.298;21.164;2022-09-12T14:53:01;4.20;;;3.70;;
18316;SDS011;9284;52.298;21.164;2022-09-12T14:55:30;5.50;;;3.80;;
18316;SDS011;9284;52.298;21.164;2022-09-12T14:58:08;6.72;;;3.72;;
18316;SDS011;9284;52.298;21.164;2022-09-12T15:03:50;3.80;;;3.00;;
18316;SDS011;9284;52.298;21.164;2022-09-12T15:06:21;4.88;;;3.10;;
18316;SDS011;9284;52.298;21.164;2022-09-12T15:08:52;7.05;;;3.55;;
18316;SDS011;9284;52.298;21.164;2022-09-12T15:11:21;4.82;;;3.45;;
18316;SDS011;9284;52.298;21.164;2022-09-12T15:13:50;4.13;;;3.25;;
18316;SDS011;9284;52.298;21.164;2022-09-12T15:16:18;6.53;;;3.58;;
18316;SDS011;9284;52.298;21.164;2022-09-12T15:18:47;6.50;;;3.60;;
18316;SDS011;9284;52.298;21.164;2022-09-12T15:21:17;6.75;;;3.40;;
18316;SDS011;9284;52.298;21.164;2022-09-12T15:23:46;6.85;;;3.50;;
18316;SDS011;9284;52.298;21.164;2022-09-12T15:26:16;5.63;;;3.20;;
18316;SDS011;9284;52.298;21.164;2022-09-12T15:28:45;4.97;;;3.58;;
18316;SDS011;9284;52.298;21.164;2022-09-12T15:31:17;7.05;;;3.97;;
18316;SDS011;9284;52.298;21.164;2022-09-12T15:33:50;8.90;;;3.65;;
18316;SDS011;9284;52.298;21.164;2022-09-12T15:36:20;5.43;;;3.55;;
18316;SDS011;9284;52.298;21.164;2022-09-12T15:38:50;4.45;;;3.40;;
18316;SDS011;9284;52.298;21.164;2022-09-12T15:41:20;5.13;;;3.65;;
18316;SDS011;9284;52.298;21.164;2022-09-12T15:43:49;10.05;;;4.45;;
18316;SDS011;9284;52.298;21.164;2022-09-12T15:46:17;5.85;;;3.83;;
18316;SDS011;9284;52.298;21.164;2022-09-12T15:48:46;7.60;;;4.00;;
18316;SDS011;9284;52.298;21.164;2022-09-12T15:51:14;6.95;;;3.92;;
18316;SDS011;9284;52.298;21.164;2022-09-12T15:53:45;7.13;;;3.95;;
18316;SDS011;9284;52.298;21.164;2022-09-12T15:56:16;7.30;;;4.10;;
18316;SDS011;9284;52.298;21.164;2022-09-12T15:58:45;5.47;;;3.70;;
18316;SDS011;9284;52.298;21.164;2022-09-12T16:01:25;8.25;;;4.10;;
18316;SDS011;9284;52.298;21.164;2022-09-12T16:03:54;18.63;;;9.40;;
18316;SDS011;9284;52.298;21.164;2022-09-12T16:06:22;10.57;;;6.40;;
18316;SDS011;9284;52.298;21.164;2022-09-12T16:08:52;14.02;;;8.40;;
18316;SDS011;9284;52.298;21.164;2022-09-12T16:11:20;15.05;;;10.13;;
18316;SDS011;9284;52.298;21.164;2022-09-12T16:13:50;17.77;;;8.68;;
18316;SDS011;9284;52.298;21.164;2022-09-12T16:16:19;12.10;;;6.80;;
18316;SDS011;9284;52.298;21.164;2022-09-12T16:18:47;10.10;;;5.40;;
18316;SDS011;9284;52.298;21.164;2022-09-12T16:21:15;7.95;;;4.72;;
18316;SDS011;9284;52.298;21.164;2022-09-12T16:23:44;13.48;;;5.13;;
18316;SDS011;9284;52.298;21.164;2022-09-12T16:26:14;7.38;;;4.40;;
18316;SDS011;9284;52.298;21.164;2022-09-12T16:28:43;7.65;;;4.70;;
18316;SDS011;9284;52.298;21.164;2022-09-12T16:31:12;8.52;;;4.40;;
18316;SDS011;9284;52.298;21.164;2022-09-12T16:33:41;12.82;;;4.97;;
18316;SDS011;9284;52.298;21.164;2022-09-12T16:36:10;9.23;;;4.93;;
18316;SDS011;9284;52.298;21.164;2022-09-12T16:38:39;9.30;;;5.45;;
18316;SDS011;9284;52.298;21.164;2022-09-12T16:41:09;7.28;;;5.38;;
18316;SDS011;9284;52.298;21.164;2022-09-12T16:43:39;8.35;;;5.63;;
18316;SDS011;9284;52.298;21.164;2022-09-12T16:46:09;11.77;;;6.13;;
18316;SDS011;9284;52.298;21.164;2022-09-12T16:48:40;10.90;;;6.10;;
18316;SDS011;9284;52.298;21.164;2022-09-12T16:51:16;11.02;;;6.05;;
18316;SDS011;9284;52.298;21.164;2022-09-12T16:53:47;11.77;;;7.28;;
18316;SDS011;9284;52.298;21.164;2022-09-12T16:56:15;9.02;;;6.28;;
18316;SDS011;9284;52.298;21.164;2022-09-12T16:58:45;21.30;;;12.98;;
18316;SDS011;9284;52.298;21.164;2022-09-12T17:01:15;18.88;;;12.95;;
18316;SDS011;9284;52.298;21.164;2022-09-12T17:03:44;15.15;;;9.13;;
18316;SDS011;9284;52.298;21.164;2022-09-12T17:06:14;14.50;;;8.50;;
18316;SDS011;9284;52.298;21.164;2022-09-12T17:08:44;13.88;;;8.85;;
18316;SDS011;9284;52.298;21.164;2022-09-12T17:11:15;14.68;;;8.15;;
18316;SDS011;9284;52.298;21.164;2022-09-12T17:13:46;19.02;;;11.45;;
18316;SDS011;9284;52.298;21.164;2022-09-12T17:16:31;10.25;;;7.15;;
18316;SDS011;9284;52.298;21.164;2022-09-12T17:19:00;14.38;;;6.72;;
18316;SDS011;9284;52.298;21.164;2022-09-12T17:21:28;13.77;;;6.63;;
18316;SDS011;9284;52.298;21.164;2022-09-12T17:23:56;9.80;;;6.78;;
18316;SDS011;9284;52.298;21.164;2022-09-12T17:26:25;12.55;;;6.40;;
18316;SDS011;9284;52.298;21.164;2022-09-12T17:28:55;10.52;;;6.07;;
18316;SDS011;9284;52.298;21.164;2022-09-12T17:31:23;10.68;;;6.55;;
18316;SDS011;9284;52.298;21.164;2022-09-12T17:33:54;10.32;;;6.35;;
18316;SDS011;9284;52.298;21.164;2022-09-12T17:36:24;11.00;;;6.57;;
18316;SDS011;9284;52.298;21.164;2022-09-12T17:38:53;11.70;;;6.47;;
18316;SDS011;9284;52.298;21.164;2022-09-12T17:41:22;8.60;;;6.15;;
18316;SDS011;9284;52.298;21.164;2022-09-12T17:43:52;11.18;;;6.32;;
18316;SDS011;9284;52.298;21.164;2022-09-12T17:46:24;9.18;;;5.97;;
18316;SDS011;9284;52.298;21.164;2022-09-12T17:48:54;10.35;;;6.00;;
18316;SDS011;9284;52.298;21.164;2022-09-12T17:51:26;8.95;;;5.65;;
18316;SDS011;9284;52.298;21.164;2022-09-12T17:53:57;11.20;;;6.40;;
18316;SDS011;9284;52.298;21.164;2022-09-12T17:56:26;10.63;;;6.85;;
18316;SDS011;9284;52.298;21.164;2022-09-12T17:58:57;12.73;;;7.82;;
18316;SDS011;9284;52.298;21.164;2022-09-12T18:01:27;13.05;;;7.93;;
18316;SDS011;9284;52.298;21.164;2022-09-12T18:04:14;17.52;;;9.00;;
18316;SDS011;9284;52.298;21.164;2022-09-12T18:06:43;15.73;;;8.68;;
18316;SDS011;9284;52.298;21.164;2022-09-12T18:09:14;16.63;;;8.98;;
18316;SDS011;9284;52.298;21.164;2022-09-12T18:11:45;16.55;;;9.70;;
18316;SDS011;9284;52.298;21.164;2022-09-12T18:14:16;18.08;;;9.63;;
18316;SDS011;9284;52.298;21.164;2022-09-12T18:16:45;15.38;;;9.13;;
18316;SDS011;9284;52.298;21.164;2022-09-12T18:19:14;19.65;;;9.10;;
18316;SDS011;9284;52.298;21.164;2022-09-12T18:21:43;15.10;;;9.43;;
18316;SDS011;9284;52.298;21.164;2022-09-12T18:24:12;19.70;;;10.18;;
18316;SDS011;9284;52.298;21.164;2022-09-12T18:26:40;15.15;;;9.63;;
18316;SDS011;9284;52.298;21.164;2022-09-12T18:29:09;17.20;;;10.20;;
18316;SDS011;9284;52.298;21.164;2022-09-12T18:31:40;20.60;;;11.40;;
18316;SDS011;9284;52.298;21.164;2022-09-12T18:34:09;20.60;;;11.60;;
18316;SDS011;9284;52.298;21.164;2022-09-12T18:36:39;20.02;;;12.25;;
18316;SDS011;9284;52.298;21.164;2022-09-12T18:39:07;21.40;;;12.10;;
18316;SDS011;9284;52.298;21.164;2022-09-12T18:41:37;22.35;;;11.55;;
18316;SDS011;9284;52.298;21.164;2022-09-12T18:44:05;17.73;;;11.55;;
18316;SDS011;9284;52.298;21.164;2022-09-12T18:46:34;17.25;;;11.45;;
18316;SDS011;9284;52.298;21.164;2022-09-12T18:49:04;16.95;;;10.38;;
18316;SDS011;9284;52.298;21.164;2022-09-12T18:51:34;19.30;;;11.15;;
18316;SDS011;9284;52.298;21.164;2022-09-12T18:54:03;14.98;;;10.23;;
18316;SDS011;9284;52.298;21.164;2022-09-12T18:56:35;19.77;;;10.25;;
18316;SDS011;9284;52.298;21.164;2022-09-12T18:59:05;14.48;;;9.70;;